createdAt,value
2023-05-23T00:01:22.582Z,9.41
2023-05-23T00:02:54.181Z,9.57
2023-05-23T00:04:26.929Z,9.82
2023-05-23T00:05:58.773Z,9.67
2023-05-23T00:07:30.170Z,9.44
2023-05-23T00:09:01.723Z,9.61
2023-05-23T00:10:33.121Z,9.55
2023-05-23T00:12:04.441Z,9.64
2023-05-23T00:13:35.854Z,9.35
2023-05-23T00:15:07.195Z,9.36
2023-05-23T00:16:38.524Z,9.59
2023-05-23T00:18:10.006Z,9.05
2023-05-23T00:19:41.539Z,9.28
2023-05-23T00:21:12.936Z,9.67
2023-05-23T00:22:44.288Z,9.24
2023-05-23T00:24:15.660Z,9.18
2023-05-23T00:25:47.068Z,9.20
2023-05-23T00:27:18.493Z,9.15
2023-05-23T00:28:49.999Z,9.25
2023-05-23T00:30:21.549Z,8.84
2023-05-23T00:31:52.943Z,9.16
2023-05-23T00:33:24.483Z,8.97
2023-05-23T00:34:56.473Z,8.72
2023-05-23T00:36:27.834Z,8.48
2023-05-23T00:37:59.166Z,8.50
2023-05-23T00:39:30.687Z,8.44
2023-05-23T00:41:02.021Z,8.25
2023-05-23T00:42:33.485Z,8.15
2023-05-23T00:44:04.805Z,7.65
2023-05-23T00:45:36.186Z,6.84
2023-05-23T00:47:08.174Z,7.51
2023-05-23T00:48:39.965Z,7.65
2023-05-23T00:50:11.394Z,6.64
2023-05-23T00:51:42.824Z,6.27
2023-05-23T00:53:14.391Z,6.10
2023-05-23T00:54:45.836Z,6.18
2023-05-23T00:56:17.154Z,5.50
2023-05-23T00:57:48.500Z,4.96
2023-05-23T00:59:19.862Z,4.20
2023-05-23T01:00:51.314Z,4.75
2023-05-23T01:02:22.747Z,4.62
2023-05-23T01:03:54.172Z,4.30
2023-05-23T01:05:25.641Z,4.07
2023-05-23T01:06:56.989Z,4.62
2023-05-23T01:08:28.479Z,4.34
2023-05-23T01:09:59.898Z,4.57
2023-05-23T01:11:31.323Z,4.59
2023-05-23T01:13:02.719Z,4.55
2023-05-23T01:14:34.135Z,4.20
2023-05-23T01:16:05.483Z,4.44
2023-05-23T01:17:37.019Z,4.37
2023-05-23T01:19:08.455Z,4.47
2023-05-23T01:20:39.980Z,4.56
2023-05-23T01:22:11.266Z,4.34
2023-05-23T01:23:42.604Z,4.53
2023-05-23T01:25:13.910Z,4.64
2023-05-23T01:26:45.361Z,4.76
2023-05-23T01:28:16.711Z,4.57
2023-05-23T01:29:48.022Z,4.64
2023-05-23T01:31:19.350Z,4.44
2023-05-23T01:32:50.790Z,4.70
2023-05-23T01:34:22.206Z,4.61
2023-05-23T01:35:53.530Z,4.66
2023-05-23T01:37:24.823Z,4.61
2023-05-23T01:38:56.252Z,4.69
2023-05-23T01:40:27.552Z,4.56
2023-05-23T01:41:58.847Z,4.66
2023-05-23T01:43:30.120Z,4.89
2023-05-23T01:45:01.423Z,5.01
2023-05-23T01:46:33.083Z,4.99
2023-05-23T01:48:04.509Z,4.92
2023-05-23T01:49:35.853Z,4.88
2023-05-23T01:51:07.478Z,5.14
2023-05-23T01:52:39.927Z,5.25
2023-05-23T01:54:11.488Z,5.09
2023-05-23T01:55:42.916Z,5.14
2023-05-23T01:57:14.348Z,5.10
2023-05-23T01:58:45.839Z,4.89
2023-05-23T02:00:17.426Z,5.21
2023-05-23T02:01:48.796Z,5.19
2023-05-23T02:03:20.910Z,5.05
2023-05-23T02:04:52.406Z,5.22
2023-05-23T02:06:23.858Z,5.11
2023-05-23T02:07:55.324Z,5.20
2023-05-23T02:09:26.627Z,4.95
2023-05-23T02:10:57.930Z,4.93
2023-05-23T02:12:29.349Z,5.01
2023-05-23T02:14:00.679Z,5.38
2023-05-23T02:15:32.025Z,5.36
2023-05-23T02:17:03.612Z,5.49
2023-05-23T02:18:35.011Z,5.67
2023-05-23T02:20:06.374Z,5.68
2023-05-23T02:21:37.724Z,5.86
2023-05-23T02:23:09.091Z,5.63
2023-05-23T02:24:40.374Z,5.83
2023-05-23T02:26:11.658Z,5.77
2023-05-23T02:27:43.053Z,5.93
2023-05-23T02:29:14.731Z,5.89
2023-05-23T02:30:46.320Z,6.47
2023-05-23T02:32:17.839Z,6.31
2023-05-23T02:33:49.217Z,6.39
2023-05-23T02:35:20.742Z,6.42
2023-05-23T02:36:52.431Z,6.58
2023-05-23T02:38:23.835Z,6.22
2023-05-23T02:39:55.161Z,6.43
2023-05-23T02:41:26.566Z,6.72
2023-05-23T02:42:57.884Z,6.63
2023-05-23T02:44:29.183Z,6.74
2023-05-23T02:46:00.639Z,7.03
2023-05-23T02:47:32.036Z,7.50
2023-05-23T02:49:03.458Z,7.14
2023-05-23T02:50:34.767Z,7.65
2023-05-23T02:52:06.094Z,7.92
2023-05-23T02:53:37.422Z,7.26
2023-05-23T02:55:08.728Z,7.76
2023-05-23T02:56:40.130Z,7.66
2023-05-23T02:58:11.421Z,8.02
2023-05-23T02:59:43.140Z,7.91
2023-05-23T03:01:14.645Z,8.34
2023-05-23T03:02:46.020Z,8.22
2023-05-23T03:04:17.680Z,8.42
2023-05-23T03:05:49.059Z,8.13
2023-05-23T03:07:28.176Z,8.31
2023-05-23T03:09:00.394Z,8.51
2023-05-23T03:10:31.944Z,7.87
2023-05-23T03:12:03.397Z,8.89
2023-05-23T03:13:34.704Z,8.78
2023-05-23T03:15:05.985Z,8.38
2023-05-23T03:16:37.473Z,8.40
2023-05-23T03:18:08.887Z,8.83
2023-05-23T03:19:40.453Z,8.49
2023-05-23T03:21:11.896Z,8.59
2023-05-23T03:22:43.232Z,8.74
2023-05-23T03:24:14.540Z,8.96
2023-05-23T03:25:45.871Z,8.93
2023-05-23T03:27:17.251Z,9.19
2023-05-23T03:28:48.557Z,9.97
2023-05-23T03:30:19.874Z,9.90
2023-05-23T03:31:51.665Z,9.62
2023-05-23T03:33:23.057Z,9.31
2023-05-23T03:34:54.434Z,9.12
2023-05-23T03:36:25.799Z,9.38
2023-05-23T03:37:57.081Z,9.15
2023-05-23T03:39:28.567Z,8.50
2023-05-23T03:40:59.981Z,9.27
2023-05-23T03:42:31.453Z,8.65
2023-05-23T03:44:02.724Z,8.87
2023-05-23T03:45:34.229Z,8.74
2023-05-23T03:47:05.930Z,8.68
2023-05-23T03:48:37.322Z,8.67
2023-05-23T03:50:08.772Z,8.25
2023-05-23T03:51:40.107Z,8.71
2023-05-23T03:53:11.353Z,9.47
2023-05-23T03:54:42.689Z,10.79
2023-05-23T03:56:13.979Z,10.64
2023-05-23T03:57:45.358Z,10.20
2023-05-23T03:59:16.782Z,10.81
2023-05-23T04:00:48.116Z,9.94
2023-05-23T04:02:20.766Z,10.36
2023-05-23T04:03:57.335Z,11.52
2023-05-23T04:05:28.755Z,11.39
2023-05-23T04:07:00.048Z,10.96
2023-05-23T04:08:31.363Z,10.86
2023-05-23T04:10:02.645Z,11.06
2023-05-23T04:11:34.130Z,11.20
2023-05-23T04:13:05.528Z,11.42
2023-05-23T04:14:36.838Z,11.46
2023-05-23T04:16:08.071Z,11.55
2023-05-23T04:17:39.543Z,11.27
2023-05-23T04:19:10.995Z,11.53
2023-05-23T04:20:42.292Z,11.03
2023-05-23T04:22:13.641Z,11.19
2023-05-23T04:23:45.052Z,11.51
2023-05-23T04:25:16.440Z,11.67
2023-05-23T04:26:47.836Z,12.14
2023-05-23T04:28:58.719Z,12.34
2023-05-23T04:30:31.710Z,11.79
2023-05-23T04:32:03.005Z,12.15
2023-05-23T04:33:34.450Z,11.92
2023-05-23T04:35:06.494Z,12.15
2023-05-23T04:36:38.764Z,12.34
2023-05-23T04:38:10.220Z,10.71
2023-05-23T04:39:41.631Z,10.37
2023-05-23T04:41:13.081Z,10.54
2023-05-23T04:42:44.543Z,10.53
2023-05-23T04:44:15.932Z,10.91
2023-05-23T04:45:47.300Z,11.92
2023-05-23T04:47:18.735Z,11.80
2023-05-23T04:48:50.253Z,11.60
2023-05-23T04:50:21.741Z,11.30
2023-05-23T04:51:53.028Z,11.14
2023-05-23T04:53:24.325Z,10.34
2023-05-23T04:54:56.045Z,10.13
2023-05-23T04:56:27.528Z,10.57
2023-05-23T04:57:58.899Z,10.15
2023-05-23T04:59:30.365Z,9.49
2023-05-23T05:01:01.729Z,9.36
2023-05-23T05:02:33.272Z,9.01
2023-05-23T05:04:04.889Z,9.06
2023-05-23T05:05:36.492Z,8.65
2023-05-23T05:07:07.850Z,8.65
2023-05-23T05:08:39.427Z,8.63
2023-05-23T05:10:10.771Z,9.26
2023-05-23T05:11:42.340Z,9.74
2023-05-23T05:13:13.813Z,10.18
2023-05-23T05:14:45.188Z,11.10
2023-05-23T05:16:16.710Z,11.46
2023-05-23T05:17:49.893Z,11.34
2023-05-23T05:19:21.740Z,12.92
2023-05-23T05:20:53.140Z,14.31
2023-05-23T05:22:24.766Z,13.00
2023-05-23T05:23:56.063Z,12.06
2023-05-23T05:25:27.393Z,11.03
2023-05-23T05:26:58.973Z,11.47
2023-05-23T05:28:30.264Z,11.19
2023-05-23T05:30:01.709Z,10.58
2023-05-23T05:31:33.261Z,11.36
2023-05-23T05:33:04.741Z,12.04
2023-05-23T05:34:36.192Z,11.37
2023-05-23T05:36:07.457Z,11.30
2023-05-23T05:37:39.009Z,10.75
2023-05-23T05:39:10.474Z,11.37
2023-05-23T05:40:42.230Z,11.86
2023-05-23T05:42:13.683Z,11.50
2023-05-23T05:43:45.025Z,12.39
2023-05-23T05:45:16.519Z,11.85
2023-05-23T05:46:47.981Z,12.03
2023-05-23T05:48:19.716Z,11.09
2023-05-23T05:49:51.031Z,10.92
2023-05-23T05:51:22.352Z,10.92
2023-05-23T05:52:53.664Z,10.45
2023-05-23T05:54:25.266Z,10.98
2023-05-23T05:55:56.564Z,10.97
2023-05-23T05:57:27.902Z,11.43
2023-05-23T05:58:59.321Z,11.41
2023-05-23T06:00:31.053Z,12.31
2023-05-23T06:02:02.389Z,12.79
2023-05-23T06:03:33.899Z,13.69
2023-05-23T06:05:05.364Z,13.84
2023-05-23T06:06:36.811Z,13.68
2023-05-23T06:08:08.176Z,14.69
2023-05-23T06:09:39.503Z,15.07
2023-05-23T06:11:10.758Z,15.83
2023-05-23T06:12:42.088Z,15.56
2023-05-23T06:14:13.446Z,16.17
2023-05-23T06:15:45.360Z,15.90
2023-05-23T06:17:17.118Z,15.35
2023-05-23T06:18:48.533Z,15.91
2023-05-23T06:20:19.853Z,15.14
2023-05-23T06:21:51.359Z,15.01
2023-05-23T06:23:22.670Z,15.16
2023-05-23T06:24:53.999Z,15.02
2023-05-23T06:26:25.362Z,13.95
2023-05-23T06:27:56.705Z,13.32
2023-05-23T06:29:28.174Z,13.73
2023-05-23T06:30:59.482Z,13.56
2023-05-23T06:32:30.808Z,13.96
2023-05-23T06:34:02.861Z,14.13
2023-05-23T06:35:34.417Z,14.97
2023-05-23T06:37:05.774Z,14.91
2023-05-23T06:38:37.103Z,15.13
2023-05-23T06:40:08.385Z,15.36
2023-05-23T06:41:39.749Z,15.35
2023-05-23T06:43:11.132Z,15.41
2023-05-23T06:44:42.614Z,15.26
2023-05-23T06:46:13.881Z,15.77
2023-05-23T06:47:45.490Z,15.40
2023-05-23T06:49:16.976Z,14.28
2023-05-23T06:50:48.320Z,12.07
2023-05-23T06:52:19.688Z,11.17
2023-05-23T06:53:51.087Z,10.51
2023-05-23T06:55:22.464Z,10.60
2023-05-23T06:56:53.962Z,10.47
2023-05-23T06:58:25.954Z,9.92
2023-05-23T06:59:57.466Z,9.55
2023-05-23T07:01:28.902Z,8.94
2023-05-23T07:03:00.352Z,9.20
2023-05-23T07:04:31.751Z,9.32
2023-05-23T07:06:03.187Z,9.21
2023-05-23T07:07:34.545Z,8.59
2023-05-23T07:09:06.084Z,8.65
2023-05-23T07:10:37.506Z,6.94
2023-05-23T07:12:08.793Z,7.51
2023-05-23T07:13:40.336Z,7.36
2023-05-23T07:15:11.664Z,6.46
2023-05-23T07:16:43.277Z,7.08
2023-05-23T07:18:14.758Z,7.13
2023-05-23T07:19:46.082Z,7.79
2023-05-23T07:21:17.511Z,7.87
2023-05-23T07:22:49.082Z,7.91
2023-05-23T07:24:20.438Z,7.36
2023-05-23T07:26:02.086Z,7.33
2023-05-23T07:27:34.451Z,6.92
2023-05-23T07:29:05.771Z,7.36
2023-05-23T07:30:37.226Z,6.92
2023-05-23T07:32:08.516Z,6.67
2023-05-23T07:33:40.064Z,7.16
2023-05-23T07:35:11.668Z,6.62
2023-05-23T07:36:42.983Z,6.50
2023-05-23T07:38:14.279Z,6.07
2023-05-23T07:39:45.722Z,6.34
2023-05-23T07:41:17.268Z,6.50
2023-05-23T07:42:48.578Z,5.87
2023-05-23T07:44:21.180Z,5.72
2023-05-23T07:45:54.567Z,5.63
2023-05-23T07:47:26.005Z,5.48
2023-05-23T07:48:57.470Z,5.65
2023-05-23T07:50:28.823Z,5.18
2023-05-23T07:52:00.203Z,5.78
2023-05-23T07:53:31.574Z,5.45
2023-05-23T07:55:02.989Z,5.65
2023-05-23T07:56:34.324Z,5.60
2023-05-23T07:58:05.588Z,5.58
2023-05-23T07:59:37.238Z,6.01
2023-05-23T08:01:08.609Z,5.66
2023-05-23T08:02:40.005Z,5.70
2023-05-23T08:04:11.506Z,6.40
2023-05-23T08:05:42.858Z,6.62
2023-05-23T08:07:14.179Z,6.61
2023-05-23T08:08:45.577Z,6.59
2023-05-23T08:10:17.030Z,6.28
2023-05-23T08:11:48.429Z,6.58
2023-05-23T08:13:19.747Z,6.68
2023-05-23T08:14:52.477Z,6.62
2023-05-23T08:16:25.405Z,6.63
2023-05-23T08:17:57.488Z,6.28
2023-05-23T08:19:28.965Z,6.44
2023-05-23T08:21:00.408Z,5.94
2023-05-23T08:22:31.844Z,5.29
2023-05-23T08:24:03.130Z,5.59
2023-05-23T08:25:34.678Z,5.75
2023-05-23T08:27:06.155Z,5.87
2023-05-23T08:28:37.527Z,6.03
2023-05-23T08:30:08.846Z,5.90
2023-05-23T08:31:40.286Z,6.46
2023-05-23T08:33:11.657Z,6.38
2023-05-23T08:34:43.488Z,6.30
2023-05-23T08:36:14.810Z,6.09
2023-05-23T08:37:46.240Z,6.28
2023-05-23T08:39:17.695Z,6.44
2023-05-23T08:40:49.206Z,5.53
2023-05-23T08:42:21.391Z,5.51
2023-05-23T08:43:52.721Z,5.71
2023-05-23T08:45:29.048Z,6.06
2023-05-23T08:47:00.364Z,5.46
2023-05-23T08:48:31.786Z,4.86
2023-05-23T08:50:03.176Z,5.29
2023-05-23T08:51:34.521Z,5.11
2023-05-23T08:53:05.887Z,4.50
2023-05-23T08:54:38.040Z,4.37
2023-05-23T08:56:09.320Z,4.39
2023-05-23T08:57:40.783Z,4.47
2023-05-23T08:59:12.162Z,4.56
2023-05-23T09:00:44.001Z,4.71
2023-05-23T09:02:15.768Z,4.99
2023-05-23T09:03:47.150Z,5.77
2023-05-23T09:05:18.914Z,6.74
2023-05-23T09:06:50.364Z,7.91
2023-05-23T09:08:21.889Z,7.25
2023-05-23T09:09:53.204Z,6.52
2023-05-23T09:11:24.552Z,6.39
2023-05-23T09:12:56.031Z,6.04
2023-05-23T09:14:27.346Z,5.79
2023-05-23T09:15:58.684Z,5.77
2023-05-23T09:17:30.228Z,5.34
2023-05-23T09:19:06.688Z,5.03
2023-05-23T09:20:38.783Z,5.56
2023-05-23T09:22:10.522Z,5.61
2023-05-23T09:23:41.851Z,6.14
2023-05-23T09:25:13.290Z,6.03
2023-05-23T09:26:44.672Z,6.40
2023-05-23T09:28:16.107Z,6.12
2023-05-23T09:29:47.637Z,6.39
2023-05-23T09:31:52.716Z,6.20
2023-05-23T09:33:24.112Z,7.38
2023-05-23T09:34:55.811Z,6.43
2023-05-23T09:36:27.351Z,6.84
2023-05-23T09:37:58.869Z,6.69
2023-05-23T09:39:30.242Z,6.08
2023-05-23T09:41:01.529Z,6.74
2023-05-23T09:42:33.208Z,6.38
2023-05-23T09:44:04.682Z,6.43
2023-05-23T09:45:36.070Z,6.59
2023-05-23T09:47:07.564Z,6.73
2023-05-23T09:48:39.071Z,5.79
2023-05-23T09:50:11.149Z,5.86
2023-05-23T09:51:42.570Z,6.30
2023-05-23T09:53:13.959Z,6.30
2023-05-23T09:54:45.506Z,5.75
2023-05-23T09:56:17.017Z,5.90
2023-05-23T09:57:48.433Z,5.93
2023-05-23T09:59:21.096Z,5.69
2023-05-23T10:00:52.462Z,5.97
2023-05-23T10:02:23.879Z,5.74
2023-05-23T10:03:58.787Z,6.00
2023-05-23T10:05:31.326Z,5.67
2023-05-23T10:07:02.837Z,5.99
2023-05-23T10:08:34.277Z,5.93
2023-05-23T10:10:05.714Z,5.81
2023-05-23T10:11:37.034Z,6.28
2023-05-23T10:13:08.388Z,6.08
2023-05-23T10:14:39.910Z,6.41
2023-05-23T10:16:11.274Z,6.45
2023-05-23T10:17:42.653Z,6.47
2023-05-23T10:19:14.016Z,6.66
2023-05-23T10:20:46.545Z,7.01
2023-05-23T10:22:17.966Z,6.55
2023-05-23T10:23:49.365Z,6.33
2023-05-23T10:25:20.691Z,6.34
2023-05-23T10:26:51.997Z,6.51
2023-05-23T10:28:28.339Z,6.35
2023-05-23T10:29:59.726Z,5.76
2023-05-23T10:31:31.364Z,6.57
2023-05-23T10:33:02.856Z,6.91
2023-05-23T10:34:34.401Z,6.65
2023-05-23T10:36:05.968Z,6.39
2023-05-23T10:37:37.482Z,6.38
2023-05-23T10:39:08.773Z,6.95
2023-05-23T10:40:40.359Z,7.00
2023-05-23T10:42:11.900Z,6.85
2023-05-23T10:43:43.189Z,5.88
2023-05-23T10:45:14.491Z,5.92
2023-05-23T10:46:45.933Z,5.68
2023-05-23T10:48:17.511Z,5.58
2023-05-23T10:49:48.830Z,5.88
2023-05-23T10:51:20.146Z,5.80
2023-05-23T10:52:51.649Z,5.13
2023-05-23T10:54:23.089Z,5.49
2023-05-23T10:55:54.872Z,5.46
2023-05-23T10:57:26.439Z,5.46
2023-05-23T10:58:58.152Z,5.81
2023-05-23T11:00:29.573Z,5.64
2023-05-23T11:02:00.921Z,5.77
2023-05-23T11:03:33.693Z,5.81
2023-05-23T11:05:05.118Z,5.85
2023-05-23T11:06:36.623Z,5.56
2023-05-23T11:08:07.952Z,5.22
2023-05-23T11:09:39.335Z,5.28
2023-05-23T11:11:10.959Z,5.66
2023-05-23T11:12:42.562Z,5.71
2023-05-23T11:14:14.030Z,5.66
2023-05-23T11:15:45.399Z,5.46
2023-05-23T11:17:16.944Z,5.48
2023-05-23T11:18:48.532Z,5.78
2023-05-23T11:20:19.982Z,5.45
2023-05-23T11:21:51.663Z,5.78
2023-05-23T11:23:23.095Z,5.61
2023-05-23T11:24:54.646Z,5.54
2023-05-23T11:26:26.025Z,5.78
2023-05-23T11:28:12.694Z,5.71
2023-05-23T11:29:44.056Z,5.62
2023-05-23T11:31:15.440Z,5.68
2023-05-23T11:32:47.007Z,5.56
2023-05-23T11:34:19.514Z,5.49
2023-05-23T11:35:50.837Z,5.18
2023-05-23T11:37:22.257Z,5.02
2023-05-23T11:38:53.653Z,5.33
2023-05-23T11:40:25.084Z,5.51
2023-05-23T11:41:56.499Z,5.21
2023-05-23T11:43:28.055Z,4.77
2023-05-23T11:44:59.392Z,4.61
2023-05-23T11:46:31.911Z,4.85
2023-05-23T11:48:03.412Z,4.77
2023-05-23T11:49:35.039Z,4.80
2023-05-23T11:51:06.423Z,4.49
2023-05-23T11:52:37.745Z,4.52
2023-05-23T11:54:19.266Z,4.35
2023-05-23T11:55:51.791Z,4.31
2023-05-23T11:57:23.174Z,4.24
2023-05-23T11:58:54.623Z,4.24
2023-05-23T12:00:26.262Z,4.26
2023-05-23T12:01:57.612Z,4.50
2023-05-23T12:03:29.582Z,4.37
2023-05-23T12:05:01.252Z,4.47
2023-05-23T12:06:32.676Z,4.22
2023-05-23T12:08:04.007Z,4.33
2023-05-23T12:09:35.509Z,4.42
2023-05-23T12:11:06.939Z,4.34
2023-05-23T12:12:38.409Z,4.00
2023-05-23T12:14:09.902Z,4.04
2023-05-23T12:15:41.301Z,3.95
2023-05-23T12:17:12.644Z,3.88
2023-05-23T12:18:44.500Z,4.12
2023-05-23T12:20:16.635Z,3.78
2023-05-23T12:21:48.012Z,3.89
2023-05-23T12:23:19.453Z,4.04
2023-05-23T12:24:51.056Z,4.00
2023-05-23T12:26:22.456Z,3.92
2023-05-23T12:27:53.822Z,3.90
2023-05-23T12:29:25.239Z,3.57
2023-05-23T12:30:56.674Z,3.77
2023-05-23T12:32:28.213Z,3.52
2023-05-23T12:33:59.727Z,3.56
2023-05-23T12:35:31.692Z,3.38
2023-05-23T12:37:18.262Z,3.99
2023-05-23T12:38:51.525Z,3.78
2023-05-23T12:40:22.945Z,3.94
2023-05-23T12:41:54.318Z,3.94
2023-05-23T12:43:25.697Z,3.74
2023-05-23T12:44:57.070Z,3.78
2023-05-23T12:46:28.882Z,3.78
2023-05-23T12:48:00.536Z,3.59
2023-05-23T12:49:32.046Z,3.77
2023-05-23T12:51:03.725Z,3.51
2023-05-23T12:52:35.101Z,3.63
2023-05-23T12:54:06.568Z,3.78
2023-05-23T12:55:38.083Z,3.84
2023-05-23T12:57:09.481Z,4.23
2023-05-23T12:58:41.013Z,3.53
2023-05-23T13:00:12.495Z,3.76
2023-05-23T13:01:43.998Z,3.94
2023-05-23T13:03:15.501Z,3.38
2023-05-23T13:04:47.094Z,3.69
2023-05-23T13:06:19.057Z,3.30
2023-05-23T13:07:50.553Z,3.22
2023-05-23T13:09:22.239Z,3.58
2023-05-23T13:10:53.719Z,3.77
2023-05-23T13:12:25.399Z,3.31
2023-05-23T13:13:56.900Z,3.34
2023-05-23T13:15:28.345Z,3.82
2023-05-23T13:16:59.801Z,3.45
2023-05-23T13:18:31.533Z,3.79
2023-05-23T13:20:02.983Z,3.42
2023-05-23T13:21:34.542Z,3.38
2023-05-23T13:23:06.121Z,5.01
2023-05-23T13:24:37.635Z,4.59
2023-05-23T13:26:09.130Z,3.99
2023-05-23T13:27:40.563Z,3.87
2023-05-23T13:29:11.995Z,3.44
2023-05-23T13:30:46.593Z,3.54
2023-05-23T13:32:18.618Z,3.88
2023-05-23T13:33:50.034Z,3.80
2023-05-23T13:35:21.570Z,3.83
2023-05-23T13:36:53.162Z,3.70
2023-05-23T13:38:26.737Z,3.54
2023-05-23T13:39:58.612Z,3.49
2023-05-23T13:41:30.064Z,3.48
2023-05-23T13:43:05.385Z,3.90
2023-05-23T13:44:38.168Z,3.69
2023-05-23T13:46:09.728Z,3.79
2023-05-23T13:47:41.388Z,3.74
2023-05-23T13:49:12.805Z,3.50
2023-05-23T13:50:44.599Z,3.65
2023-05-23T13:52:16.335Z,3.64
2023-05-23T13:53:48.074Z,3.87
2023-05-23T13:55:19.546Z,3.75
2023-05-23T13:56:51.138Z,3.70
2023-05-23T13:58:22.679Z,3.47
2023-05-23T13:59:54.188Z,3.53
2023-05-23T14:01:25.890Z,3.45
2023-05-23T14:02:57.377Z,3.88
2023-05-23T14:04:28.926Z,3.34
2023-05-23T14:06:00.718Z,4.12
2023-05-23T14:07:32.209Z,3.95
2023-05-23T14:09:03.999Z,3.71
2023-05-23T14:10:35.410Z,3.74
2023-05-23T14:12:07.105Z,4.02
2023-05-23T14:13:38.841Z,3.74
2023-05-23T14:15:10.396Z,3.93
2023-05-23T14:16:42.065Z,3.79
2023-05-23T14:18:13.677Z,3.72
2023-05-23T14:19:45.140Z,3.61
2023-05-23T14:21:16.626Z,3.64
2023-05-23T14:22:48.012Z,3.37
2023-05-23T14:24:19.605Z,3.46
2023-05-23T14:25:51.066Z,3.60
2023-05-23T14:27:22.550Z,3.82
2023-05-23T14:28:54.037Z,3.52
2023-05-23T14:30:25.529Z,3.50
2023-05-23T14:31:57.451Z,3.56
2023-05-23T14:33:29.287Z,3.55
2023-05-23T14:35:00.908Z,3.57
2023-05-23T14:36:33.155Z,3.52
2023-05-23T14:38:04.557Z,3.47
2023-05-23T14:39:36.150Z,3.54
2023-05-23T14:41:07.640Z,3.63
2023-05-23T14:42:39.357Z,3.08
2023-05-23T14:44:10.927Z,3.49
2023-05-23T14:45:42.802Z,3.36
2023-05-23T14:47:14.497Z,3.00
2023-05-23T14:48:45.947Z,3.12
2023-05-23T14:50:17.329Z,3.28
2023-05-23T14:51:51.304Z,3.37
2023-05-23T14:53:23.533Z,3.37
2023-05-23T14:54:55.075Z,3.50
2023-05-23T14:56:26.545Z,3.47
2023-05-23T14:57:58.044Z,3.39
2023-05-23T14:59:29.536Z,2.99
2023-05-23T15:01:01.081Z,3.01
2023-05-23T15:02:32.507Z,3.21
2023-05-23T15:04:04.122Z,2.97
2023-05-23T15:05:35.596Z,3.25
2023-05-23T15:07:07.058Z,3.22
2023-05-23T15:08:38.633Z,3.32
2023-05-23T15:10:10.334Z,3.08
2023-05-23T15:11:41.849Z,2.88
2023-05-23T15:13:13.284Z,2.73
2023-05-23T15:14:44.869Z,2.68
2023-05-23T15:16:16.382Z,3.35
2023-05-23T15:17:48.001Z,3.59
2023-05-23T15:19:19.562Z,3.07
2023-05-23T15:20:51.249Z,3.39
2023-05-23T15:22:37.896Z,2.54
2023-05-23T15:24:11.058Z,3.53
2023-05-23T15:27:20.952Z,3.41
2023-05-23T15:28:52.585Z,3.11
2023-05-23T15:30:29.273Z,3.40
2023-05-23T15:32:01.821Z,3.31
2023-05-23T15:33:33.382Z,3.23
2023-05-23T15:35:04.787Z,3.31
2023-05-23T15:36:36.539Z,3.61
2023-05-23T15:38:08.092Z,3.43
2023-05-23T15:39:39.516Z,3.49
2023-05-23T15:41:10.925Z,3.26
2023-05-23T15:42:42.301Z,2.46
2023-05-23T15:44:15.041Z,3.10
2023-05-23T15:45:46.589Z,2.98
2023-05-23T15:47:18.070Z,2.57
2023-05-23T15:48:49.492Z,3.66
2023-05-23T15:50:26.046Z,3.57
2023-05-23T15:51:57.679Z,3.59
2023-05-23T15:53:32.301Z,3.68
2023-05-23T15:55:06.942Z,3.77
2023-05-23T15:56:38.328Z,3.76
2023-05-23T15:58:10.121Z,3.71
2023-05-23T15:59:41.610Z,3.55
2023-05-23T16:01:13.081Z,3.91
2023-05-23T16:02:44.546Z,3.66
2023-05-23T16:04:15.961Z,3.46
2023-05-23T16:05:47.449Z,3.56
2023-05-23T16:07:18.856Z,3.19
2023-05-23T16:08:50.242Z,2.88
2023-05-23T16:10:21.632Z,3.71
2023-05-23T16:11:53.009Z,3.45
2023-05-23T16:13:24.546Z,3.54
2023-05-23T16:14:56.107Z,3.25
2023-05-23T16:16:27.528Z,3.52
2023-05-23T16:17:59.568Z,3.42
2023-05-23T16:19:31.263Z,2.81
2023-05-23T16:21:02.857Z,3.18
2023-05-23T16:22:34.441Z,3.20
2023-05-23T16:24:05.845Z,3.21
2023-05-23T16:25:37.364Z,3.07
2023-05-23T16:27:09.019Z,3.24
2023-05-23T16:28:40.453Z,3.22
2023-05-23T16:30:11.833Z,3.14
2023-05-23T16:31:43.342Z,3.06
2023-05-23T16:33:14.923Z,3.04
2023-05-23T16:34:51.850Z,3.39
2023-05-23T16:36:25.497Z,3.27
2023-05-23T16:37:58.181Z,3.34
2023-05-23T16:39:29.649Z,3.16
2023-05-23T16:41:01.081Z,2.99
2023-05-23T16:42:32.482Z,2.79
2023-05-23T16:44:03.933Z,4.17
2023-05-23T16:45:35.512Z,3.82
2023-05-23T16:47:07.166Z,3.84
2023-05-23T16:48:38.562Z,3.96
2023-05-23T16:50:09.933Z,4.55
2023-05-23T16:51:41.492Z,4.36
2023-05-23T16:53:12.847Z,4.46
2023-05-23T16:54:44.248Z,3.72
2023-05-23T16:56:15.658Z,3.03
2023-05-23T16:57:46.980Z,2.87
2023-05-23T16:59:18.427Z,2.74
2023-05-23T17:00:51.164Z,2.88
2023-05-23T17:02:22.623Z,3.15
2023-05-23T17:03:54.450Z,2.97
2023-05-23T17:05:26.374Z,3.32
2023-05-23T17:07:17.811Z,3.01
2023-05-23T17:08:59.189Z,2.90
2023-05-23T17:10:31.535Z,2.99
2023-05-23T17:12:17.865Z,3.03
2023-05-23T17:13:49.487Z,2.95
2023-05-23T17:15:21.125Z,3.16
2023-05-23T17:16:52.563Z,2.72
2023-05-23T17:18:24.061Z,3.34
2023-05-23T17:20:11.946Z,3.35
2023-05-23T17:21:43.743Z,3.07
2023-05-23T17:23:16.283Z,3.16
2023-05-23T17:24:47.757Z,3.17
2023-05-23T17:26:19.891Z,3.16
2023-05-23T17:27:51.441Z,3.48
2023-05-23T17:29:22.860Z,2.96
2023-05-23T17:30:54.459Z,3.04
2023-05-23T17:32:25.964Z,2.97
2023-05-23T17:33:57.381Z,2.69
2023-05-23T17:35:29.149Z,3.82
2023-05-23T17:37:00.730Z,3.80
2023-05-23T17:38:32.139Z,3.47
2023-05-23T17:40:03.600Z,3.26
2023-05-23T17:41:35.070Z,3.26
2023-05-23T17:43:06.405Z,3.81
2023-05-23T17:44:37.954Z,4.01
2023-05-23T17:46:09.679Z,3.08
2023-05-23T17:47:41.253Z,3.12
2023-05-23T17:49:54.465Z,3.43
2023-05-23T17:51:26.037Z,3.44
2023-05-23T17:52:57.508Z,3.11
2023-05-23T17:54:29.076Z,3.14
2023-05-23T17:56:00.504Z,2.98
2023-05-23T17:57:32.080Z,3.59
2023-05-23T17:59:03.439Z,3.36
2023-05-23T18:00:34.845Z,3.07
2023-05-23T18:02:06.353Z,2.87
2023-05-23T18:05:48.954Z,3.71
2023-05-23T18:07:20.450Z,4.21
2023-05-23T18:08:52.033Z,3.25
2023-05-23T18:10:23.526Z,3.05
2023-05-23T18:11:55.317Z,3.11
2023-05-23T18:13:26.767Z,3.17
2023-05-23T18:14:58.172Z,2.93
2023-05-23T18:16:29.648Z,3.11
2023-05-23T18:18:11.120Z,2.94
2023-05-23T18:19:42.559Z,3.31
2023-05-23T18:21:14.726Z,2.90
2023-05-23T18:22:47.174Z,3.16
2023-05-23T18:24:18.737Z,3.01
2023-05-23T18:25:50.084Z,2.83
2023-05-23T18:27:21.469Z,2.95
2023-05-23T18:29:03.136Z,3.17
2023-05-23T18:30:36.495Z,3.12
2023-05-23T18:32:08.066Z,3.09
2023-05-23T18:33:39.556Z,2.70
2023-05-23T18:35:16.107Z,2.99
2023-05-23T18:36:47.506Z,3.18
2023-05-23T18:38:18.926Z,3.12
2023-05-23T18:39:50.366Z,3.29
2023-05-23T18:41:21.817Z,3.04
2023-05-23T18:42:53.246Z,3.21
2023-05-23T18:44:25.386Z,3.14
2023-05-23T18:45:56.803Z,3.15
2023-05-23T18:47:28.223Z,3.10
2023-05-23T18:48:59.597Z,3.07
2023-05-23T18:50:31.210Z,3.11
2023-05-23T18:52:02.649Z,3.16
2023-05-23T18:53:34.058Z,3.24
2023-05-23T18:55:05.457Z,3.12
2023-05-23T18:56:37.041Z,3.06
2023-05-23T18:58:08.465Z,2.97
2023-05-23T18:59:39.970Z,2.80
2023-05-23T19:01:11.420Z,2.70
2023-05-23T19:02:42.824Z,2.98
2023-05-23T19:04:35.959Z,3.00
2023-05-23T19:06:16.117Z,2.72
2023-05-23T19:07:59.674Z,2.80
2023-05-23T19:09:53.539Z,3.04
2023-05-23T19:13:58.884Z,2.91
2023-05-23T19:15:45.160Z,2.77
2023-05-23T19:17:27.476Z,3.34
2023-05-23T19:19:31.880Z,3.16
2023-05-23T19:21:13.461Z,3.13
2023-05-23T19:24:32.670Z,3.21
2023-05-23T19:26:20.620Z,2.88
2023-05-23T19:28:07.613Z,2.87
2023-05-23T19:30:02.015Z,3.57
2023-05-23T19:31:33.498Z,3.10
2023-05-23T19:33:05.170Z,3.03
2023-05-23T19:34:36.721Z,3.00
2023-05-23T19:36:38.203Z,2.71
2023-05-23T19:38:56.468Z,3.00
2023-05-23T19:40:27.882Z,3.14
2023-05-23T19:41:59.391Z,2.66
2023-05-23T19:43:30.813Z,3.10
2023-05-23T19:45:02.268Z,2.61
2023-05-23T19:46:57.417Z,3.05
2023-05-23T19:48:28.811Z,3.05
2023-05-23T19:50:00.101Z,3.06
2023-05-23T19:51:57.686Z,3.13
2023-05-23T19:53:29.097Z,2.96
2023-05-23T19:55:24.779Z,2.96
2023-05-23T19:57:34.434Z,3.12
2023-05-23T19:59:37.953Z,3.05
2023-05-23T20:01:10.617Z,2.98
2023-05-23T20:02:42.018Z,2.86
2023-05-23T20:04:19.139Z,3.03
2023-05-23T20:06:02.276Z,2.89
2023-05-23T20:07:33.616Z,2.66
2023-05-23T20:09:04.940Z,3.02
2023-05-23T20:10:36.406Z,2.84
2023-05-23T20:12:07.897Z,2.77
2023-05-23T20:13:44.196Z,2.88
2023-05-23T20:15:17.720Z,3.02
2023-05-23T20:16:53.212Z,2.97
2023-05-23T20:18:24.883Z,2.52
2023-05-23T20:19:56.182Z,2.84
2023-05-23T20:21:27.462Z,2.67
2023-05-23T20:23:00.192Z,2.92
2023-05-23T20:24:31.712Z,3.21
2023-05-23T20:26:24.901Z,2.70
2023-05-23T20:28:17.544Z,2.89
2023-05-23T20:29:59.244Z,3.08
2023-05-23T20:31:31.202Z,3.14
2023-05-23T20:33:02.672Z,3.33
2023-05-23T20:34:34.207Z,2.62